Bei Facebook empfehlenBei Twitter postenGoogle plusPinterest

Das Wetter im Erzgebirge am 26.09.2016

Wetter und Klima am 26.09.2016 Holzhau im Erzgebirge (630m ü.NN)
Letzte gemessene Temperatur und Uhrzeit der Messung23:45:00 Uhr6.70 °C
Temperatur (Maximum / Höchstwert) und Uhrzeit der Messung14:30:00 Uhr21.00 °C
Temperatur (Minimum / Tiefstwert) und Uhrzeit der Messung07:30:004.80 °C
Errechneter Absolutwert der Temperaturschwankungen zwischen Tmin und Tmax des Tages16.20 K
Errechnete Tagesmitteltemperatur10.71563 °C
Gesamt - Niederschlag des Tages (in flüssiger Form)0.00 Liter / m²
Luftdruck (Maximum / Höchstwert) und Zeitpunkt der Messung22:30:00 Uhr1020.70 hPa
Luftdruck (Minimum / Tiefstwert) und Zeitpunkt der Messung04:30:00 Uhr1017.20 hPa
Errechneter Absolutwert der Luftdruckschwankungen des Tages3.50 hPa
Höchste gemessene Windgeschwindigkeit und Uhrzeit der Messung23:45:00 Uhr0.00 km/h
Errechnete Windhäufigkeit in Relation zu den Messwerten des Tages0.00000 %
Niedrigste Windkühle (Windchill) und Zeitpunkt der Messung07:30:00 Uhr4.80 °C
Taupunkt (Maximum / Höchstwert) und Uhrzeit der Messung11:30:00 Uhr15.10 °C
Taupunkt (Minimum / Tiefstwert) und Uhrzeit der Messung05:00:003.70 °C
Anzahl der automatisch eingelesenen Messwerte 96

Detaillierte Wetter- und Klima- Messwerte für den 26.09.2016 in Holzhau im Erzgebirge (630m ü.NN)
ZeitTemperaturLuftdruckRel. LuftfeuchteWindWindrichtungWindchillTaupunktNiederschlag l/m²
23:45:006.70 °C1020.50 hPa91.00 %5.30 °C 
23:30:006.80 °C1020.40 hPa90.00 %5.30 °C 
23:15:006.70 °C1020.50 hPa90.00 %5.20 °C 
23:00:006.90 °C1020.50 hPa90.00 %5.40 °C 
22:45:006.90 °C1020.50 hPa89.00 %5.20 °C 
22:30:007.10 °C1020.70 hPa89.00 %5.40 °C 
22:15:007.30 °C1020.50 hPa88.00 %5.40 °C 
22:00:007.60 °C1020.60 hPa88.00 %5.70 °C 
21:45:007.90 °C1020.50 hPa88.00 %6.00 °C 
21:30:008.10 °C1020.50 hPa87.00 %6.10 °C 
21:15:008.40 °C1020.40 hPa86.00 %6.20 °C 
21:00:008.50 °C1020.20 hPa86.00 %6.30 °C 
20:45:008.60 °C1020.20 hPa85.00 %6.20 °C 
20:30:008.80 °C1020.10 hPa84.00 %6.20 °C 
20:15:009.30 °C1020.30 hPa83.00 %6.60 °C 
20:00:009.90 °C1020.10 hPa82.00 %7.00 °C 
19:45:0010.50 °C1019.90 hPa81.00 %7.40 °C 
19:30:0011.20 °C1019.90 hPa80.00 %7.90 °C 
19:15:0011.90 °C1020.10 hPa79.00 %8.40 °C 
19:00:0012.70 °C1019.80 hPa78.00 %9.00 °C 
18:45:0013.50 °C1019.70 hPa77.00 %9.60 °C 
18:30:0014.20 °C1019.80 hPa76.00 %10.00 °C 
18:15:0014.90 °C1019.80 hPa74.00 %10.30 °C 
18:00:0015.80 °C1019.70 hPa71.00 %10.60 °C 
17:45:0016.30 °C1019.70 hPa68.00 %10.40 °C 
17:30:0017.00 °C1019.60 hPa68.00 %11.10 °C 
17:15:0017.50 °C1019.70 hPa66.00 %11.10 °C 
17:00:0018.60 °C1019.70 hPa64.00 %11.70 °C 
16:45:0019.30 °C1019.60 hPa65.00 %12.60 °C 
16:30:0019.40 °C1019.60 hPa65.00 %12.70 °C 
16:15:0019.60 °C1019.60 hPa65.00 %12.80 °C 
16:00:0019.80 °C1019.80 hPa65.00 %13.00 °C 
15:45:0019.90 °C1019.50 hPa64.00 %12.90 °C 
15:30:0019.90 °C1019.50 hPa66.00 %13.40 °C 
15:15:0019.80 °C1019.60 hPa66.00 %13.30 °C 
15:00:0020.10 °C1019.40 hPa66.00 %13.60 °C 
14:45:0020.70 °C1019.50 hPa65.00 %13.90 °C 
14:30:0021.00 °C1019.30 hPa63.00 %13.70 °C 
14:15:0021.00 °C1019.40 hPa63.00 %13.70 °C 
14:00:0020.50 °C1019.40 hPa65.00 %13.70 °C 
13:45:0020.90 °C1019.40 hPa67.00 %14.50 °C 
13:30:0020.10 °C1019.40 hPa69.00 %14.20 °C 
13:15:0019.60 °C1019.10 hPa72.00 %14.40 °C 
13:00:0019.10 °C1019.20 hPa75.00 %14.60 °C 
12:45:0018.20 °C1019.30 hPa77.00 %14.10 °C 
12:30:0017.30 °C1019.20 hPa78.00 %13.40 °C 
12:15:0017.20 °C1019.10 hPa79.00 %13.50 °C 
12:00:0017.50 °C1019.20 hPa81.00 %14.20 °C 
11:45:0017.60 °C1019.10 hPa85.00 %15.00 °C 
11:30:0016.90 °C1018.90 hPa89.00 %15.10 °C 
11:15:0015.80 °C1018.80 hPa92.00 %14.50 °C 
11:00:0014.90 °C1018.70 hPa94.00 %13.90 °C 
10:45:0013.80 °C1018.80 hPa95.00 %13.00 °C 
10:30:0011.90 °C1018.60 hPa96.00 %11.30 °C 
10:15:0010.20 °C1018.60 hPa95.00 %9.40 °C 
10:00:009.10 °C1018.50 hPa95.00 %8.30 °C 
09:45:008.30 °C1018.20 hPa95.00 %7.50 °C 
09:30:007.70 °C1018.00 hPa95.00 %7.00 °C 
09:15:007.00 °C1018.20 hPa94.00 %6.10 °C 
09:00:006.40 °C1017.90 hPa94.00 %5.50 °C 
08:45:005.80 °C1017.60 hPa94.00 %4.90 °C 
08:30:005.30 °C1017.50 hPa94.00 %4.40 °C 
08:15:005.10 °C1017.50 hPa94.00 %4.20 °C 
08:00:005.10 °C1017.50 hPa94.00 %4.20 °C 
07:45:004.90 °C1017.60 hPa94.00 %4.00 °C 
07:30:004.80 °C1017.60 hPa93.00 %3.80 °C 
07:15:004.90 °C1017.30 hPa93.00 %3.90 °C 
07:00:005.00 °C1017.30 hPa93.00 %4.00 °C 
06:45:005.10 °C1017.40 hPa93.00 %4.10 °C 
06:30:005.20 °C1017.40 hPa93.00 %4.20 °C 
06:15:005.30 °C1017.40 hPa93.00 %4.30 °C 
06:00:005.60 °C1017.30 hPa93.00 %4.60 °C 
05:45:005.60 °C1017.40 hPa93.00 %4.60 °C 
05:30:005.60 °C1017.40 hPa93.00 %4.60 °C 
05:15:005.30 °C1017.40 hPa93.00 %4.30 °C 
05:00:004.90 °C1017.30 hPa92.00 %3.70 °C 
04:45:005.10 °C1017.40 hPa92.00 %3.90 °C 
04:30:005.20 °C1017.20 hPa93.00 %4.20 °C 
04:15:005.40 °C1017.20 hPa92.00 %4.20 °C 
04:00:005.80 °C1017.30 hPa92.00 %4.60 °C 
03:45:005.80 °C1017.30 hPa92.00 %4.60 °C 
03:30:005.40 °C1017.20 hPa92.00 %4.20 °C 
03:15:005.00 °C1017.40 hPa92.00 %3.80 °C 
03:00:005.10 °C1017.50 hPa92.00 %3.90 °C 
02:45:005.30 °C1017.70 hPa91.00 %4.00 °C 
02:30:005.30 °C1017.70 hPa91.00 %4.00 °C 
02:15:005.30 °C1017.80 hPa91.00 %4.00 °C 
02:00:005.40 °C1017.90 hPa91.00 %4.10 °C 
01:45:005.40 °C1017.80 hPa91.00 %4.10 °C 
01:30:005.60 °C1017.90 hPa91.00 %4.20 °C 
01:15:005.90 °C1017.80 hPa91.00 %4.50 °C 
01:00:006.10 °C1017.70 hPa90.00 %4.60 °C 
00:45:006.70 °C1017.90 hPa90.00 %5.20 °C 
00:30:007.20 °C1017.80 hPa91.00 %5.80 °C 
00:15:007.20 °C1017.90 hPa91.00 %5.80 °C 
00:00:006.90 °C1018.00 hPa90.00 %5.40 °C 

Permanenter Link zu dieser Seite: Wetter im Erzgebirge am 26.09.2016
Performance-Info: Die Erstellung der Seite / Statistik(en) / Tabelle(n) erforderte 5 Datenbankserver-Abfrage(n) und dauerte 70 Millisekunden. (Dieser Messwert ist von der Gesamt-Auslastung des Servers abhängig.)
Erzgebirge - Wetter | Erzgebirge - Wetter (Mobilgeräte) | Komplette Klimadatenbank